createdAt,value
2022-08-29T00:02:03.937Z,17.60
2022-08-29T00:07:05.796Z,17.60
2022-08-29T00:12:08.154Z,17.60
2022-08-29T00:17:21.078Z,17.50
2022-08-29T00:22:23.631Z,17.50
2022-08-29T00:27:28.007Z,17.40
2022-08-29T00:32:35.104Z,17.40
2022-08-29T00:37:37.310Z,17.40
2022-08-29T00:42:39.895Z,17.30
2022-08-29T00:47:49.299Z,17.30
2022-08-29T00:52:53.021Z,17.30
2022-08-29T01:03:21.547Z,17.20
2022-08-29T01:08:23.396Z,17.10
2022-08-29T01:13:32.543Z,17.10
2022-08-29T01:18:36.933Z,17.00
2022-08-29T01:23:44.187Z,16.90
2022-08-29T01:28:51.410Z,16.90
2022-08-29T01:33:58.464Z,16.80
2022-08-29T01:39:01.117Z,16.80
2022-08-29T01:44:10.032Z,16.70
2022-08-29T01:49:13.346Z,16.70
2022-08-29T01:54:15.932Z,16.60
2022-08-29T01:59:21.001Z,16.60
2022-08-29T02:04:23.329Z,16.50
2022-08-29T02:09:25.852Z,16.50
2022-08-29T02:14:28.054Z,16.40
2022-08-29T02:19:29.811Z,16.30
2022-08-29T02:24:31.638Z,16.30
2022-08-29T02:29:37.696Z,16.20
2022-08-29T02:34:44.716Z,16.10
2022-08-29T02:39:49.613Z,16.00
2022-08-29T02:44:51.377Z,15.90
2022-08-29T02:49:53.118Z,15.80
2022-08-29T02:54:54.870Z,15.70
2022-08-29T02:59:56.984Z,15.60
2022-08-29T03:05:00.014Z,15.50
2022-08-29T03:10:02.168Z,15.40
2022-08-29T03:15:05.532Z,15.40
2022-08-29T03:20:08.661Z,15.30
2022-08-29T03:25:12.323Z,15.30
2022-08-29T03:30:15.913Z,15.30
2022-08-29T03:35:19.588Z,15.20
2022-08-29T03:40:22.082Z,15.10
2022-08-29T03:45:25.504Z,15.10
2022-08-29T03:50:27.329Z,15.00
2022-08-29T03:55:29.608Z,15.00
2022-08-29T04:00:31.559Z,14.90
2022-08-29T04:05:33.338Z,14.90
2022-08-29T04:10:38.157Z,14.80
2022-08-29T04:15:41.778Z,14.80
2022-08-29T04:20:44.969Z,14.80
2022-08-29T04:25:46.931Z,14.80
2022-08-29T04:30:51.787Z,14.70
2022-08-29T04:35:54.777Z,14.60
2022-08-29T04:40:56.598Z,14.60
2022-08-29T04:45:58.777Z,14.60
2022-08-29T04:51:01.837Z,14.60
2022-08-29T04:56:07.505Z,14.60
2022-08-29T05:01:18.117Z,14.60
2022-08-29T05:06:22.539Z,14.60
2022-08-29T05:11:25.172Z,14.60
2022-08-29T05:16:27.372Z,14.60
2022-08-29T05:21:35.854Z,14.70
2022-08-29T05:26:41.879Z,14.80
2022-08-29T05:31:44.529Z,14.80
2022-08-29T05:36:47.595Z,14.80
2022-08-29T05:41:49.389Z,14.90
2022-08-29T05:46:51.223Z,15.00
2022-08-29T05:51:57.002Z,15.10
2022-08-29T05:56:58.802Z,15.20
2022-08-29T06:02:01.517Z,15.30
2022-08-29T06:07:04.293Z,15.30
2022-08-29T06:12:10.476Z,15.50
2022-08-29T06:17:12.506Z,15.60
2022-08-29T06:22:14.317Z,15.80
2022-08-29T06:27:16.602Z,16.00
2022-08-29T06:32:18.581Z,16.10
2022-08-29T06:37:21.706Z,16.20
2022-08-29T06:42:25.150Z,16.40
2022-08-29T06:47:31.093Z,16.50
2022-08-29T06:52:33.097Z,16.70
2022-08-29T06:57:42.639Z,16.70
2022-08-29T07:02:52.543Z,16.80
2022-08-29T07:08:01.203Z,17.00
2022-08-29T07:13:04.831Z,17.10
2022-08-29T07:18:08.277Z,17.30
2022-08-29T07:23:12.781Z,17.50
2022-08-29T07:28:14.994Z,17.70
2022-08-29T07:33:17.614Z,17.90
2022-08-29T07:38:20.498Z,18.10
2022-08-29T07:43:27.386Z,18.30
2022-08-29T07:48:30.783Z,18.40
2022-08-29T07:53:35.307Z,18.60
2022-08-29T07:58:37.413Z,18.80
2022-08-29T08:03:39.719Z,19.00
2022-08-29T08:08:42.115Z,19.30
2022-08-29T08:13:45.598Z,19.60
2022-08-29T08:18:49.644Z,19.80
2022-08-29T08:23:52.472Z,20.10
2022-08-29T08:28:55.265Z,20.30
2022-08-29T08:33:57.726Z,20.50
2022-08-29T08:39:00.308Z,20.70
2022-08-29T08:44:35.207Z,20.80
2022-08-29T08:49:40.306Z,20.70
2022-08-29T08:54:53.258Z,20.60
2022-08-29T09:00:01.701Z,20.90
2022-08-29T09:05:07.658Z,20.90
2022-08-29T09:10:58.934Z,21.00
2022-08-29T09:16:05.203Z,21.00
2022-08-29T09:21:39.599Z,21.10
2022-08-29T09:26:36.236Z,21.20
2022-08-29T09:31:38.266Z,21.30
2022-08-29T09:36:48.437Z,21.60
2022-08-29T09:41:57.443Z,21.80
2022-08-29T09:47:19.234Z,22.10
2022-08-29T09:52:25.039Z,22.20
2022-08-29T09:57:28.693Z,22.50
2022-08-29T10:02:38.744Z,22.80
2022-08-29T10:07:52.297Z,22.90
2022-08-29T10:13:18.606Z,23.00
2022-08-29T10:18:37.477Z,23.20
2022-08-29T10:24:05.998Z,23.30
2022-08-29T10:29:21.526Z,23.50
2022-08-29T10:34:39.150Z,23.70
2022-08-29T10:39:52.727Z,23.90
2022-08-29T10:45:15.454Z,24.30
2022-08-29T10:50:44.569Z,24.60
2022-08-29T10:56:06.829Z,24.70
2022-08-29T11:01:12.062Z,24.90
2022-08-29T11:06:28.867Z,25.00
2022-08-29T11:11:33.331Z,25.20
2022-08-29T11:16:43.466Z,25.10
2022-08-29T11:22:23.748Z,25.30
2022-08-29T11:27:54.720Z,25.60
2022-08-29T11:33:03.441Z,25.60
2022-08-29T11:38:23.713Z,25.60
2022-08-29T11:43:35.343Z,25.70
2022-08-29T11:48:46.398Z,25.70
2022-08-29T11:53:48.626Z,26.00
2022-08-29T11:58:56.315Z,26.00
2022-08-29T12:03:59.150Z,26.20
2022-08-29T12:09:17.893Z,26.20
2022-08-29T12:14:38.036Z,26.40
2022-08-29T12:19:56.362Z,26.50
2022-08-29T12:24:58.157Z,26.80
2022-08-29T12:30:00.154Z,27.00
2022-08-29T12:35:26.583Z,27.00
2022-08-29T12:40:35.030Z,27.30
2022-08-29T12:45:42.127Z,27.50
2022-08-29T12:50:48.093Z,27.40
2022-08-29T12:56:00.095Z,27.70
2022-08-29T13:01:03.256Z,27.60
2022-08-29T13:06:13.963Z,27.80
2022-08-29T13:11:20.834Z,28.00
2022-08-29T13:16:26.711Z,28.30
2022-08-29T13:21:32.296Z,28.60
2022-08-29T13:26:34.757Z,28.80
2022-08-29T13:31:37.973Z,29.10
2022-08-29T13:37:16.332Z,29.30
2022-08-29T13:42:27.892Z,29.40
2022-08-29T13:47:33.030Z,29.40
2022-08-29T13:52:34.792Z,29.60
2022-08-29T13:57:40.466Z,29.70
2022-08-29T14:02:45.229Z,30.00
2022-08-29T14:07:47.534Z,29.90
2022-08-29T14:12:49.371Z,30.10
2022-08-29T14:17:51.168Z,30.30
2022-08-29T14:22:53.039Z,30.40
2022-08-29T14:27:55.406Z,30.30
2022-08-29T14:32:57.228Z,30.50
2022-08-29T14:38:01.420Z,30.60
2022-08-29T14:43:04.008Z,30.90
2022-08-29T14:48:06.556Z,31.10
2022-08-29T14:53:08.691Z,31.40
2022-08-29T14:58:10.458Z,31.20
2022-08-29T15:03:12.420Z,31.30
2022-08-29T15:08:15.855Z,31.00
2022-08-29T15:13:17.859Z,31.10
2022-08-29T15:18:59.554Z,31.10
2022-08-29T15:23:43.033Z,30.90
2022-08-29T15:28:45.196Z,30.80
2022-08-29T15:33:46.997Z,30.60
2022-08-29T15:38:48.890Z,30.30
2022-08-29T15:43:51.386Z,30.00
2022-08-29T15:48:53.385Z,29.70
2022-08-29T15:53:55.234Z,29.40
2022-08-29T15:58:57.026Z,29.30
2022-08-29T16:03:58.785Z,29.20
2022-08-29T16:09:01.161Z,28.90
2022-08-29T16:14:41.112Z,28.90
2022-08-29T16:19:26.026Z,28.90
2022-08-29T16:24:30.429Z,28.60
2022-08-29T16:29:34.041Z,28.50
2022-08-29T16:34:35.845Z,28.40
2022-08-29T16:39:37.739Z,28.10
2022-08-29T16:44:40.228Z,28.00
2022-08-29T16:49:42.194Z,27.80
2022-08-29T16:54:44.010Z,27.80
2022-08-29T16:59:45.843Z,27.60
2022-08-29T17:04:48.921Z,27.50
2022-08-29T17:09:50.700Z,27.30
2022-08-29T17:14:54.984Z,27.20
2022-08-29T17:19:56.930Z,27.10
2022-08-29T17:24:59.312Z,27.00
2022-08-29T17:30:03.495Z,26.90
2022-08-29T17:35:06.889Z,26.70
2022-08-29T17:40:10.000Z,26.40
2022-08-29T17:45:12.552Z,26.20
2022-08-29T17:50:14.377Z,26.00
2022-08-29T17:55:16.335Z,25.80
2022-08-29T18:00:19.263Z,25.50
2022-08-29T18:05:21.091Z,25.30
2022-08-29T18:10:23.833Z,25.00
2022-08-29T18:15:25.848Z,24.80
2022-08-29T18:20:27.670Z,24.50
2022-08-29T18:25:29.896Z,24.20
2022-08-29T18:30:31.690Z,24.00
2022-08-29T18:35:33.876Z,23.70
2022-08-29T18:40:39.456Z,23.50
2022-08-29T18:45:42.901Z,23.40
2022-08-29T18:50:45.513Z,23.20
2022-08-29T18:55:51.204Z,22.90
2022-08-29T19:00:55.367Z,22.80
2022-08-29T19:05:57.115Z,22.60
2022-08-29T19:11:00.218Z,22.50
2022-08-29T19:16:04.863Z,22.30
2022-08-29T19:21:07.087Z,22.20
2022-08-29T19:26:13.333Z,21.90
2022-08-29T19:31:16.382Z,21.80
2022-08-29T19:36:20.067Z,21.60
2022-08-29T19:41:22.018Z,21.40
2022-08-29T19:46:24.029Z,21.20
2022-08-29T19:51:27.973Z,21.10
2022-08-29T19:56:29.843Z,21.00
2022-08-29T20:01:31.658Z,20.90
2022-08-29T20:06:34.576Z,20.80
2022-08-29T20:11:40.049Z,20.70
2022-08-29T20:16:45.721Z,20.60
2022-08-29T20:21:49.055Z,20.60
2022-08-29T20:26:50.733Z,20.50
2022-08-29T20:31:55.233Z,20.50
2022-08-29T20:37:08.859Z,20.40
2022-08-29T20:42:10.511Z,20.40
2022-08-29T20:47:17.950Z,20.30
2022-08-29T20:52:20.607Z,20.20
2022-08-29T20:57:22.538Z,20.20
2022-08-29T21:02:24.179Z,20.20
2022-08-29T21:07:26.488Z,20.10
2022-08-29T21:12:28.643Z,20.00
2022-08-29T21:17:30.260Z,19.90
2022-08-29T21:22:31.892Z,19.80
2022-08-29T21:27:33.569Z,19.70
2022-08-29T21:32:35.198Z,19.60
2022-08-29T21:37:36.972Z,19.50
2022-08-29T21:42:39.819Z,19.40
2022-08-29T21:47:41.797Z,19.40
2022-08-29T21:52:43.437Z,19.40
2022-08-29T21:57:52.250Z,19.40
2022-08-29T22:02:54.523Z,19.30
2022-08-29T22:07:56.793Z,19.20
2022-08-29T22:13:00.649Z,19.20
2022-08-29T22:18:03.115Z,19.20
2022-08-29T22:23:05.914Z,19.10
2022-08-29T22:28:10.062Z,19.10
2022-08-29T22:33:13.718Z,19.00
2022-08-29T22:38:18.385Z,18.90
2022-08-29T22:43:20.063Z,18.80
2022-08-29T22:48:21.733Z,18.50
2022-08-29T22:53:23.890Z,18.40
2022-08-29T22:58:25.789Z,18.20
2022-08-29T23:03:27.432Z,18.00
2022-08-29T23:08:29.061Z,18.00
2022-08-29T23:13:31.159Z,17.90
2022-08-29T23:18:33.368Z,17.90
2022-08-29T23:23:35.339Z,17.80
2022-08-29T23:28:37.099Z,17.70
2022-08-29T23:33:38.757Z,17.60
2022-08-29T23:38:40.440Z,17.60
2022-08-29T23:43:42.888Z,17.40
2022-08-29T23:48:44.844Z,17.30
2022-08-29T23:53:47.387Z,17.10
2022-08-29T23:58:49.219Z,16.90
